createdAt,value
2022-11-17T00:00:06.912Z,2.00
2022-11-17T00:02:33.365Z,2.17
2022-11-17T00:04:59.790Z,2.17
2022-11-17T00:07:26.158Z,2.03
2022-11-17T00:09:52.506Z,2.45
2022-11-17T00:12:37.514Z,2.30
2022-11-17T00:15:04.153Z,2.00
2022-11-17T00:17:30.477Z,2.13
2022-11-17T00:20:15.634Z,2.13
2022-11-17T00:22:41.962Z,2.53
2022-11-17T00:25:08.419Z,1.87
2022-11-17T00:27:34.757Z,2.40
2022-11-17T00:30:01.078Z,2.05
2022-11-17T00:32:46.167Z,2.28
2022-11-17T00:35:12.508Z,2.35
2022-11-17T00:38:00.304Z,2.87
2022-11-17T00:40:27.032Z,2.72
2022-11-17T00:42:53.371Z,2.28
2022-11-17T00:45:19.712Z,2.00
2022-11-17T00:47:46.061Z,3.38
2022-11-17T00:50:12.382Z,2.30
2022-11-17T00:52:38.705Z,2.33
2022-11-17T00:55:05.616Z,2.53
2022-11-17T00:57:31.994Z,2.50
2022-11-17T00:59:58.318Z,2.60
2022-11-17T01:02:24.647Z,2.37
2022-11-17T01:04:50.952Z,2.03
2022-11-17T01:07:17.321Z,2.60
2022-11-17T01:09:43.692Z,2.30
2022-11-17T01:12:09.993Z,2.47
2022-11-17T01:14:36.356Z,2.37
2022-11-17T01:17:02.676Z,2.28
2022-11-17T01:19:29.532Z,1.98
2022-11-17T01:21:56.198Z,2.53
2022-11-17T01:24:22.605Z,2.00
2022-11-17T01:26:51.654Z,1.80
2022-11-17T01:29:18.507Z,2.05
2022-11-17T01:31:49.056Z,1.60
2022-11-17T01:34:15.365Z,2.13
2022-11-17T01:37:02.595Z,2.00
2022-11-17T01:39:30.787Z,1.73
2022-11-17T01:41:58.240Z,1.65
2022-11-17T01:44:59.837Z,2.00
2022-11-17T01:47:58.582Z,2.50
2022-11-17T01:50:29.025Z,1.92
2022-11-17T01:52:59.498Z,1.70
2022-11-17T01:55:32.068Z,1.60
2022-11-17T01:58:03.135Z,2.10
2022-11-17T02:00:30.015Z,1.80
2022-11-17T02:02:56.643Z,2.00
2022-11-17T02:05:31.807Z,1.63
2022-11-17T02:08:02.874Z,1.58
2022-11-17T02:10:31.730Z,1.67
2022-11-17T02:13:00.058Z,2.00
2022-11-17T02:15:28.477Z,1.95
2022-11-17T02:17:56.117Z,1.60
2022-11-17T02:20:44.377Z,1.77
2022-11-17T02:23:25.813Z,1.90
2022-11-17T02:26:01.078Z,1.75
2022-11-17T02:28:31.179Z,1.58
2022-11-17T02:31:33.007Z,1.20
2022-11-17T02:33:59.259Z,0.98
2022-11-17T02:36:31.839Z,1.15
2022-11-17T02:39:16.474Z,1.00
2022-11-17T02:41:58.112Z,1.00
2022-11-17T02:44:37.199Z,1.10
2022-11-17T02:47:15.504Z,1.15
2022-11-17T02:49:47.207Z,0.93
2022-11-17T02:52:15.397Z,1.08
2022-11-17T02:54:41.952Z,1.10
2022-11-17T02:57:27.942Z,1.40
2022-11-17T02:59:54.816Z,0.93
2022-11-17T03:02:33.209Z,0.90
2022-11-17T03:05:29.794Z,1.17
2022-11-17T03:08:32.752Z,0.70
2022-11-17T03:11:02.927Z,0.90
2022-11-17T03:13:45.269Z,0.85
2022-11-17T03:16:45.623Z,0.90
2022-11-17T03:19:25.823Z,0.70
2022-11-17T03:22:07.725Z,0.80
2022-11-17T03:24:39.587Z,0.87
2022-11-17T03:27:13.241Z,0.90
2022-11-17T03:29:43.334Z,1.02
2022-11-17T03:32:10.958Z,0.90
2022-11-17T03:34:45.751Z,0.82
2022-11-17T03:37:15.534Z,0.80
2022-11-17T03:39:47.030Z,1.00
2022-11-17T03:42:24.571Z,1.10
2022-11-17T03:44:54.930Z,0.90
2022-11-17T03:47:25.741Z,0.80
2022-11-17T03:50:13.527Z,0.80
2022-11-17T03:52:42.163Z,0.98
2022-11-17T03:55:09.420Z,0.95
2022-11-17T03:57:55.198Z,0.90
2022-11-17T04:00:21.607Z,1.00
2022-11-17T04:02:54.156Z,0.70
2022-11-17T04:05:20.651Z,0.68
2022-11-17T04:07:48.030Z,0.90
2022-11-17T04:10:20.002Z,0.85
2022-11-17T04:13:06.335Z,1.00
2022-11-17T04:15:51.679Z,1.00
2022-11-17T04:18:18.812Z,1.00
2022-11-17T04:20:45.706Z,1.10
2022-11-17T04:23:14.736Z,1.40
2022-11-17T04:26:08.367Z,1.08
2022-11-17T04:28:37.191Z,0.83
2022-11-17T04:31:15.512Z,1.00
2022-11-17T04:33:44.354Z,0.90
2022-11-17T04:36:12.286Z,0.80
2022-11-17T04:38:48.043Z,1.00
2022-11-17T04:41:34.531Z,0.80
2022-11-17T04:44:01.980Z,0.80
2022-11-17T04:46:30.551Z,0.70
2022-11-17T04:48:57.825Z,0.80
2022-11-17T04:51:25.452Z,0.90
2022-11-17T04:53:52.473Z,0.90
2022-11-17T04:56:20.025Z,0.88
2022-11-17T04:58:47.052Z,0.85
2022-11-17T05:01:13.870Z,0.85
2022-11-17T05:03:57.272Z,0.65
2022-11-17T05:06:35.568Z,1.03
2022-11-17T05:09:06.835Z,0.70
2022-11-17T05:11:52.131Z,0.70
2022-11-17T05:14:20.470Z,0.70
2022-11-17T05:17:10.787Z,1.00
2022-11-17T05:19:47.919Z,0.90
2022-11-17T05:22:36.877Z,1.00
2022-11-17T05:25:04.650Z,0.75
2022-11-17T05:27:31.641Z,0.90
2022-11-17T05:29:57.996Z,1.23
2022-11-17T05:32:24.342Z,1.10
2022-11-17T05:34:50.823Z,1.30
2022-11-17T05:37:17.168Z,1.30
2022-11-17T05:39:43.484Z,1.35
2022-11-17T05:42:09.861Z,1.15
2022-11-17T05:44:36.406Z,1.13
2022-11-17T05:47:02.836Z,1.33
2022-11-17T05:49:29.239Z,1.80
2022-11-17T05:51:55.682Z,1.40
2022-11-17T05:54:22.065Z,1.42
2022-11-17T05:57:00.726Z,1.40
2022-11-17T05:59:36.547Z,1.25
2022-11-17T06:02:08.449Z,1.10
2022-11-17T06:04:34.999Z,1.00
2022-11-17T06:07:02.406Z,0.93
2022-11-17T06:09:32.902Z,1.27
2022-11-17T06:12:05.313Z,1.23
2022-11-17T06:14:32.770Z,1.15
2022-11-17T06:17:05.663Z,1.20
2022-11-17T06:19:38.054Z,0.90
2022-11-17T06:22:12.135Z,1.17
2022-11-17T06:24:42.655Z,1.20
2022-11-17T06:27:10.739Z,1.00
2022-11-17T06:29:42.416Z,1.20
2022-11-17T06:32:10.861Z,0.73
2022-11-17T06:34:37.466Z,1.10
2022-11-17T06:37:03.825Z,0.70
2022-11-17T06:39:30.165Z,0.70
2022-11-17T06:41:56.479Z,0.75
2022-11-17T06:44:22.784Z,0.65
2022-11-17T06:46:49.483Z,0.70
2022-11-17T06:49:15.856Z,1.10
2022-11-17T06:51:45.107Z,0.70
2022-11-17T06:54:14.533Z,0.68
2022-11-17T06:56:41.222Z,0.73
2022-11-17T06:59:07.587Z,0.90
2022-11-17T07:01:33.944Z,0.77
2022-11-17T07:04:00.339Z,0.70
2022-11-17T07:06:26.752Z,0.82
2022-11-17T07:08:53.184Z,0.50
2022-11-17T07:11:19.954Z,0.63
2022-11-17T07:13:46.387Z,0.65
2022-11-17T07:16:21.696Z,0.50
2022-11-17T07:18:50.148Z,0.55
2022-11-17T07:21:16.623Z,0.60
2022-11-17T07:23:44.941Z,0.60
2022-11-17T07:26:12.129Z,0.57
2022-11-17T07:28:38.856Z,0.95
2022-11-17T07:31:07.734Z,0.80
2022-11-17T07:33:34.394Z,0.77
2022-11-17T07:36:09.528Z,0.53
2022-11-17T07:38:37.720Z,0.52
2022-11-17T07:41:05.968Z,0.65
2022-11-17T07:43:33.868Z,0.90
2022-11-17T07:46:05.042Z,0.68
2022-11-17T07:48:32.497Z,0.60
2022-11-17T07:51:00.170Z,0.75
2022-11-17T07:53:26.868Z,0.45
2022-11-17T07:55:53.281Z,0.43
2022-11-17T07:58:19.638Z,0.68
2022-11-17T08:00:46.103Z,0.30
2022-11-17T08:03:12.712Z,1.67
2022-11-17T08:05:43.381Z,0.73
2022-11-17T08:08:10.437Z,0.65
2022-11-17T08:10:37.078Z,0.60
2022-11-17T08:13:03.527Z,0.33
2022-11-17T08:15:31.101Z,0.30
2022-11-17T08:17:59.499Z,0.30
2022-11-17T08:20:27.698Z,0.40
2022-11-17T08:22:54.243Z,0.30
2022-11-17T08:25:22.765Z,0.33
2022-11-17T08:27:51.932Z,0.30
2022-11-17T08:30:20.362Z,0.30
2022-11-17T08:32:52.262Z,0.40
2022-11-17T08:35:20.135Z,0.40
2022-11-17T08:37:46.860Z,0.50
2022-11-17T08:40:14.731Z,0.50
2022-11-17T08:42:41.175Z,0.50
2022-11-17T08:45:08.233Z,0.60
2022-11-17T08:47:34.629Z,0.60
2022-11-17T08:50:01.057Z,0.70
2022-11-17T08:52:30.920Z,0.40
2022-11-17T08:54:57.451Z,0.47
2022-11-17T08:57:23.979Z,0.50
2022-11-17T08:59:50.815Z,0.50
2022-11-17T09:02:17.592Z,0.43
2022-11-17T09:04:46.065Z,0.40
2022-11-17T09:07:12.588Z,0.43
2022-11-17T09:09:39.174Z,0.50
2022-11-17T09:12:05.828Z,0.40
2022-11-17T09:14:32.217Z,0.50
2022-11-17T09:16:58.580Z,0.40
2022-11-17T09:19:24.988Z,0.43
2022-11-17T09:21:51.357Z,0.50
2022-11-17T09:24:17.885Z,0.50
2022-11-17T09:26:44.638Z,0.50
2022-11-17T09:29:10.989Z,0.47
2022-11-17T09:31:37.831Z,0.45
2022-11-17T09:34:05.788Z,0.40
2022-11-17T09:36:33.318Z,0.68
2022-11-17T09:38:59.645Z,0.40
2022-11-17T09:41:42.865Z,0.52
2022-11-17T09:44:34.341Z,0.43
2022-11-17T09:47:22.049Z,0.60
2022-11-17T09:49:59.477Z,0.45
2022-11-17T09:52:26.076Z,1.20
2022-11-17T09:55:02.361Z,0.50
2022-11-17T09:57:52.001Z,0.60
2022-11-17T10:00:20.992Z,0.88
2022-11-17T10:02:47.875Z,0.90
2022-11-17T10:05:16.565Z,0.57
2022-11-17T10:07:50.009Z,0.60
2022-11-17T10:10:21.500Z,0.45
2022-11-17T10:12:53.208Z,0.40
2022-11-17T10:15:25.789Z,0.40
2022-11-17T10:17:52.411Z,0.40
2022-11-17T10:20:19.386Z,0.57
2022-11-17T10:22:47.405Z,0.40
2022-11-17T10:25:38.375Z,0.70
2022-11-17T10:28:08.335Z,0.50
2022-11-17T10:30:35.365Z,0.30
2022-11-17T10:33:02.852Z,0.43
2022-11-17T10:35:32.368Z,0.63
2022-11-17T10:38:16.140Z,0.40
2022-11-17T10:40:42.584Z,0.40
2022-11-17T10:43:11.724Z,0.50
2022-11-17T10:45:51.145Z,0.50
2022-11-17T10:48:35.726Z,0.50
2022-11-17T10:51:04.856Z,0.65
2022-11-17T10:53:45.150Z,0.40
2022-11-17T10:56:21.667Z,0.40
2022-11-17T10:58:56.527Z,0.60
2022-11-17T11:01:33.447Z,0.40
2022-11-17T11:04:00.061Z,0.45
2022-11-17T11:06:29.604Z,0.50
2022-11-17T11:09:04.416Z,0.30
2022-11-17T11:11:53.568Z,0.32
2022-11-17T11:14:26.194Z,0.50
2022-11-17T11:16:54.245Z,0.30
2022-11-17T11:19:21.152Z,0.40
2022-11-17T11:22:01.941Z,0.50
2022-11-17T11:24:55.008Z,0.40
2022-11-17T11:27:24.372Z,0.30
2022-11-17T11:30:10.617Z,0.40
2022-11-17T11:32:55.858Z,0.55
2022-11-17T11:35:37.755Z,0.40
2022-11-17T11:38:16.088Z,0.40
2022-11-17T11:40:45.569Z,0.32
2022-11-17T11:43:36.010Z,0.60
2022-11-17T11:47:00.629Z,0.65
2022-11-17T11:49:42.416Z,0.40
2022-11-17T11:52:20.856Z,0.63
2022-11-17T11:54:54.416Z,0.43
2022-11-17T11:57:27.398Z,0.50
2022-11-17T12:00:04.491Z,0.75
2022-11-17T12:03:01.677Z,0.57
2022-11-17T12:06:28.109Z,0.52
2022-11-17T12:09:10.090Z,0.63
2022-11-17T12:11:58.504Z,0.40
2022-11-17T12:14:24.855Z,0.60
2022-11-17T12:17:01.618Z,0.30
2022-11-17T12:20:26.371Z,0.50
2022-11-17T12:23:06.529Z,0.40
2022-11-17T12:25:35.974Z,0.35
2022-11-17T12:28:33.012Z,0.60
2022-11-17T12:31:10.824Z,0.70
2022-11-17T12:34:06.537Z,0.43
2022-11-17T12:36:34.413Z,0.55
2022-11-17T12:39:08.712Z,0.70
2022-11-17T12:41:47.209Z,0.40
2022-11-17T12:44:31.841Z,0.60
2022-11-17T12:47:16.843Z,0.50
2022-11-17T12:49:58.252Z,0.68
2022-11-17T12:52:43.576Z,0.60
2022-11-17T12:55:21.493Z,0.65
2022-11-17T12:57:55.217Z,0.63
2022-11-17T13:00:25.903Z,0.50
2022-11-17T13:03:10.224Z,0.77
2022-11-17T13:05:37.402Z,0.50
2022-11-17T13:08:22.248Z,0.60
2022-11-17T13:10:49.986Z,0.70
2022-11-17T13:13:17.814Z,0.50
2022-11-17T13:15:44.819Z,0.68
2022-11-17T13:18:18.480Z,0.40
2022-11-17T13:20:48.440Z,0.50
2022-11-17T13:23:23.529Z,0.60
2022-11-17T13:25:50.812Z,0.30
2022-11-17T13:28:27.677Z,0.70
2022-11-17T13:30:54.130Z,0.50
2022-11-17T13:33:23.769Z,0.63
2022-11-17T13:36:04.748Z,0.57
2022-11-17T13:38:31.580Z,0.50
2022-11-17T13:40:58.751Z,0.40
2022-11-17T13:43:27.833Z,0.60
2022-11-17T13:45:55.101Z,0.75
2022-11-17T13:48:34.905Z,0.70
2022-11-17T13:51:19.674Z,1.20
2022-11-17T13:53:49.992Z,0.63
2022-11-17T13:56:36.457Z,0.65
2022-11-17T13:59:33.676Z,0.80
2022-11-17T14:02:14.942Z,0.40
2022-11-17T14:04:42.649Z,0.70
2022-11-17T14:07:11.570Z,0.52
2022-11-17T14:09:37.910Z,0.80
2022-11-17T14:12:10.863Z,0.68
2022-11-17T14:14:43.589Z,0.60
2022-11-17T14:17:19.391Z,0.60
2022-11-17T14:19:46.706Z,0.68
2022-11-17T14:22:18.176Z,0.50
2022-11-17T14:24:48.788Z,0.40
2022-11-17T14:27:27.331Z,0.60
2022-11-17T14:29:54.111Z,0.73
2022-11-17T14:32:20.526Z,0.82
2022-11-17T14:34:46.936Z,0.52
2022-11-17T14:37:13.609Z,0.63
2022-11-17T14:39:39.973Z,0.60
2022-11-17T14:42:06.297Z,0.98
2022-11-17T14:44:32.607Z,0.50
2022-11-17T14:46:58.917Z,0.55
2022-11-17T14:49:25.336Z,0.68
2022-11-17T14:51:53.109Z,0.70
2022-11-17T14:54:19.561Z,0.55
2022-11-17T14:56:45.992Z,0.40
2022-11-17T14:59:13.394Z,0.63
2022-11-17T15:01:40.992Z,0.63
2022-11-17T15:04:34.520Z,0.70
2022-11-17T15:06:53.931Z,0.50
2022-11-17T15:09:20.544Z,0.50
2022-11-17T15:11:47.525Z,0.60
2022-11-17T15:14:14.480Z,0.70
2022-11-17T15:16:41.109Z,0.57
2022-11-17T15:19:07.506Z,0.60
2022-11-17T15:21:34.039Z,0.50
2022-11-17T15:24:01.915Z,0.40
2022-11-17T15:26:28.229Z,0.45
2022-11-17T15:28:57.830Z,0.90
2022-11-17T15:31:24.177Z,0.50
2022-11-17T15:33:50.543Z,0.60
2022-11-17T15:36:19.084Z,0.40
2022-11-17T15:38:45.985Z,0.57
2022-11-17T15:41:13.948Z,0.70
2022-11-17T15:43:41.836Z,0.30
2022-11-17T15:46:26.480Z,0.75
2022-11-17T15:48:54.788Z,0.30
2022-11-17T15:51:23.664Z,0.45
2022-11-17T15:53:52.408Z,0.30
2022-11-17T15:56:24.773Z,0.30
2022-11-17T15:59:03.018Z,0.70
2022-11-17T16:01:30.638Z,0.50
2022-11-17T16:03:59.276Z,0.32
2022-11-17T16:06:25.756Z,0.40
2022-11-17T16:08:52.450Z,0.50
2022-11-17T16:11:19.149Z,0.43
2022-11-17T16:13:45.877Z,0.45
2022-11-17T16:16:14.421Z,0.80
2022-11-17T16:18:41.532Z,0.40
2022-11-17T16:21:11.115Z,0.52
2022-11-17T16:23:48.953Z,0.40
2022-11-17T16:26:17.049Z,0.60
2022-11-17T16:28:43.617Z,0.85
2022-11-17T16:31:20.229Z,0.50
2022-11-17T16:33:51.855Z,0.45
2022-11-17T16:36:19.513Z,0.57
2022-11-17T16:39:00.523Z,0.40
2022-11-17T16:41:33.304Z,0.55
2022-11-17T16:44:00.625Z,0.50
2022-11-17T16:46:31.492Z,0.55
2022-11-17T16:49:03.394Z,0.65
2022-11-17T16:51:30.102Z,0.50
2022-11-17T16:54:07.728Z,0.60
2022-11-17T16:56:34.425Z,0.80
2022-11-17T16:59:00.897Z,0.60
2022-11-17T17:01:32.359Z,0.55
2022-11-17T17:04:04.288Z,0.50
2022-11-17T17:06:30.789Z,0.90
2022-11-17T17:09:00.031Z,0.67
2022-11-17T17:11:29.028Z,0.70
2022-11-17T17:13:56.490Z,0.68
2022-11-17T17:16:23.414Z,0.95
2022-11-17T17:18:54.937Z,0.65
2022-11-17T17:21:21.330Z,1.00
2022-11-17T17:23:47.718Z,0.90
2022-11-17T17:26:18.127Z,0.70
2022-11-17T17:28:46.932Z,0.63
2022-11-17T17:31:20.728Z,0.73
2022-11-17T17:33:48.332Z,0.60
2022-11-17T17:36:17.084Z,0.68
2022-11-17T17:38:44.061Z,1.02
2022-11-17T17:41:16.007Z,0.95
2022-11-17T17:43:44.042Z,1.10
2022-11-17T17:46:15.724Z,0.80
2022-11-17T17:48:44.310Z,0.90
2022-11-17T17:51:18.211Z,1.10
2022-11-17T17:53:45.121Z,0.70
2022-11-17T17:56:13.581Z,0.90
2022-11-17T17:58:41.135Z,0.87
2022-11-17T18:01:12.670Z,0.93
2022-11-17T18:03:39.944Z,1.02
2022-11-17T18:06:06.816Z,0.70
2022-11-17T18:08:35.556Z,1.05
2022-11-17T18:11:03.744Z,1.17
2022-11-17T18:13:35.141Z,0.60
2022-11-17T18:16:13.161Z,0.70
2022-11-17T18:18:40.389Z,0.80
2022-11-17T18:21:09.268Z,0.80
2022-11-17T18:23:36.548Z,0.90
2022-11-17T18:26:18.194Z,0.93
2022-11-17T18:28:53.387Z,1.10
2022-11-17T18:31:21.080Z,0.82
2022-11-17T18:33:51.742Z,0.93
2022-11-17T18:36:18.557Z,1.00
2022-11-17T18:38:45.264Z,0.70
2022-11-17T18:41:14.021Z,0.65
2022-11-17T18:43:41.056Z,1.52
2022-11-17T18:46:08.872Z,1.30
2022-11-17T18:48:39.964Z,1.20
2022-11-17T18:51:20.570Z,0.88
2022-11-17T18:53:51.432Z,0.88
2022-11-17T18:56:20.250Z,0.88
2022-11-17T18:58:46.929Z,1.05
2022-11-17T19:01:14.495Z,1.00
2022-11-17T19:03:42.603Z,0.90
2022-11-17T19:06:10.916Z,0.70
2022-11-17T19:08:38.241Z,0.90
2022-11-17T19:11:06.692Z,0.70
2022-11-17T19:13:35.385Z,1.00
2022-11-17T19:16:09.080Z,1.00
2022-11-17T19:18:35.755Z,1.15
2022-11-17T19:21:11.311Z,0.70
2022-11-17T19:23:39.743Z,0.80
2022-11-17T19:26:08.609Z,1.07
2022-11-17T19:28:35.628Z,0.95
2022-11-17T19:31:04.116Z,0.85
2022-11-17T19:33:35.259Z,0.98
2022-11-17T19:36:14.053Z,0.85
2022-11-17T19:38:41.109Z,0.87
2022-11-17T19:41:10.007Z,1.30
2022-11-17T19:43:43.386Z,1.27
2022-11-17T19:46:14.515Z,0.82
2022-11-17T19:48:41.637Z,0.90
2022-11-17T19:51:19.821Z,1.00
2022-11-17T19:53:51.647Z,1.48
2022-11-17T19:56:18.776Z,1.40
2022-11-17T19:58:45.708Z,1.30
2022-11-17T20:01:22.213Z,1.10
2022-11-17T20:03:49.634Z,1.57
2022-11-17T20:06:18.775Z,1.10
2022-11-17T20:08:46.240Z,1.35
2022-11-17T20:11:18.171Z,1.50
2022-11-17T20:13:45.046Z,1.40
2022-11-17T20:16:14.632Z,1.17
2022-11-17T20:18:42.226Z,1.30
2022-11-17T20:21:10.210Z,1.10
2022-11-17T20:23:38.120Z,1.10
2022-11-17T20:26:13.184Z,1.25
2022-11-17T20:28:39.850Z,0.70
2022-11-17T20:31:26.483Z,1.45
2022-11-17T20:34:00.268Z,1.10
2022-11-17T20:36:28.573Z,1.10
2022-11-17T20:39:05.804Z,1.50
2022-11-17T20:41:32.390Z,1.20
2022-11-17T20:44:00.423Z,1.30
2022-11-17T20:46:27.342Z,1.20
2022-11-17T20:48:53.783Z,1.10
2022-11-17T20:51:23.120Z,1.40
2022-11-17T20:53:50.276Z,1.20
2022-11-17T20:56:17.240Z,1.00
2022-11-17T20:58:43.904Z,1.48
2022-11-17T21:01:15.962Z,1.35
2022-11-17T21:03:43.250Z,1.38
2022-11-17T21:06:10.365Z,1.27
2022-11-17T21:08:38.989Z,1.42
2022-11-17T21:11:08.612Z,1.20
2022-11-17T21:13:36.292Z,1.27
2022-11-17T21:16:11.980Z,1.38
2022-11-17T21:18:40.260Z,1.23
2022-11-17T21:21:10.368Z,1.48
2022-11-17T21:23:38.193Z,1.13
2022-11-17T21:26:06.697Z,1.17
2022-11-17T21:28:34.407Z,1.10
2022-11-17T21:31:12.148Z,1.10
2022-11-17T21:33:39.083Z,1.20
2022-11-17T21:36:07.692Z,1.65
2022-11-17T21:38:34.203Z,1.15
2022-11-17T21:41:05.301Z,1.70
2022-11-17T21:43:32.243Z,2.87
2022-11-17T21:46:02.748Z,2.28
2022-11-17T21:48:29.616Z,1.85
2022-11-17T21:50:56.108Z,1.80
2022-11-17T21:53:22.556Z,1.48
2022-11-17T21:55:48.935Z,1.80
2022-11-17T21:58:15.288Z,1.30
2022-11-17T22:00:41.760Z,1.70
2022-11-17T22:03:08.247Z,1.33
2022-11-17T22:05:34.664Z,1.73
2022-11-17T22:08:01.052Z,1.43
2022-11-17T22:10:27.456Z,1.40
2022-11-17T22:12:53.789Z,1.50
2022-11-17T22:15:20.091Z,1.48
2022-11-17T22:17:46.504Z,1.08
2022-11-17T22:20:12.878Z,1.70
2022-11-17T22:22:39.289Z,1.60
2022-11-17T22:25:29.962Z,1.35
2022-11-17T22:27:52.157Z,1.70
2022-11-17T22:30:18.619Z,1.45
2022-11-17T22:32:45.435Z,1.37
2022-11-17T22:35:11.982Z,1.63
2022-11-17T22:37:38.333Z,1.73
2022-11-17T22:40:05.088Z,1.55
2022-11-17T22:42:31.502Z,1.67
2022-11-17T22:44:57.823Z,1.57
2022-11-17T22:47:24.153Z,1.40
2022-11-17T22:49:50.561Z,1.60
2022-11-17T22:52:16.900Z,1.38
2022-11-17T22:54:43.381Z,1.58
2022-11-17T22:57:09.748Z,1.60
2022-11-17T22:59:36.092Z,1.65
2022-11-17T23:02:02.472Z,1.45
2022-11-17T23:04:28.874Z,1.40
2022-11-17T23:06:55.419Z,1.60
2022-11-17T23:09:21.873Z,1.53
2022-11-17T23:11:49.342Z,2.40
2022-11-17T23:14:15.855Z,1.80
2022-11-17T23:16:42.666Z,1.45
2022-11-17T23:19:12.907Z,1.83
2022-11-17T23:21:39.465Z,1.50
2022-11-17T23:24:06.335Z,1.50
2022-11-17T23:26:32.754Z,1.30
2022-11-17T23:28:59.390Z,1.80
2022-11-17T23:31:27.874Z,2.08
2022-11-17T23:33:54.317Z,1.50
2022-11-17T23:36:21.709Z,1.70
2022-11-17T23:38:49.581Z,1.70
2022-11-17T23:41:19.276Z,1.50
2022-11-17T23:43:46.521Z,1.60
2022-11-17T23:46:16.341Z,1.50
2022-11-17T23:48:44.210Z,1.60
2022-11-17T23:51:19.293Z,1.50
2022-11-17T23:53:46.699Z,1.80
2022-11-17T23:56:13.544Z,1.75
2022-11-17T23:58:40.148Z,1.43
